Main page
METAR-TAF:

METAR-TAF

Airports :

Morón Air Base

Morón de la Frontera, Spain

latitude: 37-09N, longitude: 005-37W, elevation: 87 m

Current weather observation

The report was made 1 hour and 2 minutes ago, at 23:00 UTC
Wind 6 kt from the South/Southwest, varying between South and Southwest
Temperature 26°C
Humidity 58%
Pressure 1017 hPa
Visibility 10 km or more
no clouds below 1500 m and no cumulonimbus

METAR: LEMO 052300Z 20006KT 170V230 CAVOK 26/17 Q1017 NOSIG

Time: 02:02 (00:02 UTC)

Forecast

The report was made 1 hour and 2 minutes ago, at 23:00 UTC
Forecast valid from 06 at 00 UTC to 06 at 09 UTC
Wind 5 kt from the South/Southwest
Visibility 10 km or more
no clouds below 1500 m and no cumulonimbus

TAF: LEMO 052300Z 0600/0609 21005KT CAVOK

Weather observations and forecasts of more than 4000 airports (METAR and TAF reports).

The available stations are represented by yellow and red dots on the map.

Hover mouse over dot to see the name of the station.

Then click to see weather observations and forecasts.

To change the map : click on the green buttons with a black cross to zoom in, on the green button with a dash to zoom out, or on the green arrows for adjacent maps.


METAR-TAF: